sensor_id;sensor_type;location;lat;lon;timestamp;P1;durP1;ratioP1;P2;durP2;ratioP2
76346;SDS011;65171;48.378;10.010;2023-01-20T00:01:57;16.90;;;12.07;;
76346;SDS011;65171;48.378;10.010;2023-01-20T00:04:22;17.77;;;11.53;;
76346;SDS011;65171;48.378;10.010;2023-01-20T00:06:47;16.30;;;11.67;;
76346;SDS011;65171;48.378;10.010;2023-01-20T00:09:13;15.70;;;11.20;;
76346;SDS011;65171;48.378;10.010;2023-01-20T00:11:40;15.73;;;11.40;;
76346;SDS011;65171;48.378;10.010;2023-01-20T00:14:09;14.70;;;11.23;;
76346;SDS011;65171;48.378;10.010;2023-01-20T00:16:34;15.90;;;11.87;;
76346;SDS011;65171;48.378;10.010;2023-01-20T00:18:59;14.83;;;11.80;;
76346;SDS011;65171;48.378;10.010;2023-01-20T00:21:25;18.43;;;11.43;;
76346;SDS011;65171;48.378;10.010;2023-01-20T00:23:50;14.03;;;10.93;;
76346;SDS011;65171;48.378;10.010;2023-01-20T00:26:16;16.40;;;11.77;;
76346;SDS011;65171;48.378;10.010;2023-01-20T00:28:45;15.73;;;11.63;;
76346;SDS011;65171;48.378;10.010;2023-01-20T00:31:29;16.63;;;11.67;;
76346;SDS011;65171;48.378;10.010;2023-01-20T00:33:56;18.17;;;11.90;;
76346;SDS011;65171;48.378;10.010;2023-01-20T00:36:24;20.50;;;11.37;;
76346;SDS011;65171;48.378;10.010;2023-01-20T00:38:50;15.07;;;11.83;;
76346;SDS011;65171;48.378;10.010;2023-01-20T00:41:16;16.80;;;12.10;;
76346;SDS011;65171;48.378;10.010;2023-01-20T00:43:42;14.27;;;11.20;;
76346;SDS011;65171;48.378;10.010;2023-01-20T00:46:08;17.50;;;11.67;;
76346;SDS011;65171;48.378;10.010;2023-01-20T00:48:33;15.17;;;11.90;;
76346;SDS011;65171;48.378;10.010;2023-01-20T00:50:59;13.43;;;11.53;;
76346;SDS011;65171;48.378;10.010;2023-01-20T00:53:24;17.63;;;11.50;;
76346;SDS011;65171;48.378;10.010;2023-01-20T00:55:49;18.00;;;11.37;;
76346;SDS011;65171;48.378;10.010;2023-01-20T00:58:15;15.07;;;11.50;;
76346;SDS011;65171;48.378;10.010;2023-01-20T01:00:40;16.97;;;11.43;;
76346;SDS011;65171;48.378;10.010;2023-01-20T01:03:06;16.23;;;11.27;;
76346;SDS011;65171;48.378;10.010;2023-01-20T01:05:31;17.03;;;10.63;;
76346;SDS011;65171;48.378;10.010;2023-01-20T01:07:57;14.43;;;11.40;;
76346;SDS011;65171;48.378;10.010;2023-01-20T01:10:22;15.87;;;12.37;;
76346;SDS011;65171;48.378;10.010;2023-01-20T01:12:47;16.43;;;11.87;;
76346;SDS011;65171;48.378;10.010;2023-01-20T01:15:12;15.47;;;11.67;;
76346;SDS011;65171;48.378;10.010;2023-01-20T01:17:38;15.83;;;11.03;;
76346;SDS011;65171;48.378;10.010;2023-01-20T01:20:03;15.27;;;11.27;;
76346;SDS011;65171;48.378;10.010;2023-01-20T01:22:30;14.07;;;10.63;;
76346;SDS011;65171;48.378;10.010;2023-01-20T01:24:55;13.53;;;11.50;;
76346;SDS011;65171;48.378;10.010;2023-01-20T01:27:21;13.67;;;11.43;;
76346;SDS011;65171;48.378;10.010;2023-01-20T01:29:46;17.00;;;11.17;;
76346;SDS011;65171;48.378;10.010;2023-01-20T01:32:11;15.47;;;11.13;;
76346;SDS011;65171;48.378;10.010;2023-01-20T01:34:36;13.97;;;11.23;;
76346;SDS011;65171;48.378;10.010;2023-01-20T01:37:01;13.97;;;10.80;;
76346;SDS011;65171;48.378;10.010;2023-01-20T01:39:26;14.80;;;11.17;;
76346;SDS011;65171;48.378;10.010;2023-01-20T01:41:52;13.83;;;11.00;;
76346;SDS011;65171;48.378;10.010;2023-01-20T01:44:17;15.13;;;11.73;;
76346;SDS011;65171;48.378;10.010;2023-01-20T01:46:42;16.33;;;12.00;;
76346;SDS011;65171;48.378;10.010;2023-01-20T01:54:27;15.87;;;11.20;;
76346;SDS011;65171;48.378;10.010;2023-01-20T01:56:56;17.00;;;10.33;;
76346;SDS011;65171;48.378;10.010;2023-01-20T01:59:21;15.57;;;11.07;;
76346;SDS011;65171;48.378;10.010;2023-01-20T02:01:48;15.87;;;10.47;;
76346;SDS011;65171;48.378;10.010;2023-01-20T02:04:18;14.00;;;10.50;;
76346;SDS011;65171;48.378;10.010;2023-01-20T02:06:45;14.93;;;11.17;;
76346;SDS011;65171;48.378;10.010;2023-01-20T02:09:13;14.20;;;10.50;;
76346;SDS011;65171;48.378;10.010;2023-01-20T02:11:39;15.37;;;10.27;;
76346;SDS011;65171;48.378;10.010;2023-01-20T02:14:07;15.33;;;11.10;;
76346;SDS011;65171;48.378;10.010;2023-01-20T02:16:44;13.83;;;10.30;;
76346;SDS011;65171;48.378;10.010;2023-01-20T02:30:53;12.50;;;9.53;;
76346;SDS011;65171;48.378;10.010;2023-01-20T02:36:06;14.97;;;10.03;;
76346;SDS011;65171;48.378;10.010;2023-01-20T02:44:26;12.43;;;9.97;;
76346;SDS011;65171;48.378;10.010;2023-01-20T02:46:59;11.67;;;9.13;;
76346;SDS011;65171;48.378;10.010;2023-01-20T02:52:25;11.67;;;9.47;;
76346;SDS011;65171;48.378;10.010;2023-01-20T02:54:54;12.70;;;9.13;;
76346;SDS011;65171;48.378;10.010;2023-01-20T02:57:24;13.00;;;9.63;;
76346;SDS011;65171;48.378;10.010;2023-01-20T02:59:54;14.43;;;9.67;;
76346;SDS011;65171;48.378;10.010;2023-01-20T03:02:22;13.27;;;9.07;;
76346;SDS011;65171;48.378;10.010;2023-01-20T03:04:51;14.03;;;9.60;;
76346;SDS011;65171;48.378;10.010;2023-01-20T03:07:22;12.47;;;8.90;;
76346;SDS011;65171;48.378;10.010;2023-01-20T03:09:52;12.60;;;9.27;;
76346;SDS011;65171;48.378;10.010;2023-01-20T03:12:26;12.17;;;9.43;;
76346;SDS011;65171;48.378;10.010;2023-01-20T03:15:02;11.23;;;8.53;;
76346;SDS011;65171;48.378;10.010;2023-01-20T03:17:27;12.63;;;8.80;;
76346;SDS011;65171;48.378;10.010;2023-01-20T03:19:52;13.07;;;9.30;;
76346;SDS011;65171;48.378;10.010;2023-01-20T03:22:33;11.37;;;8.50;;
76346;SDS011;65171;48.378;10.010;2023-01-20T03:24:58;11.60;;;8.07;;
76346;SDS011;65171;48.378;10.010;2023-01-20T03:27:24;12.70;;;8.80;;
76346;SDS011;65171;48.378;10.010;2023-01-20T03:29:50;11.77;;;8.63;;
76346;SDS011;65171;48.378;10.010;2023-01-20T03:32:15;12.87;;;9.10;;
76346;SDS011;65171;48.378;10.010;2023-01-20T03:34:42;11.13;;;8.13;;
76346;SDS011;65171;48.378;10.010;2023-01-20T03:37:08;10.63;;;8.10;;
76346;SDS011;65171;48.378;10.010;2023-01-20T03:39:35;10.63;;;8.03;;
76346;SDS011;65171;48.378;10.010;2023-01-20T03:50:36;10.57;;;8.27;;
76346;SDS011;65171;48.378;10.010;2023-01-20T03:53:06;10.07;;;7.20;;
76346;SDS011;65171;48.378;10.010;2023-01-20T03:55:41;10.33;;;7.33;;
76346;SDS011;65171;48.378;10.010;2023-01-20T03:58:12;11.83;;;8.00;;
76346;SDS011;65171;48.378;10.010;2023-01-20T04:00:42;9.43;;;8.00;;
76346;SDS011;65171;48.378;10.010;2023-01-20T04:03:11;9.03;;;7.80;;
76346;SDS011;65171;48.378;10.010;2023-01-20T04:05:42;11.80;;;8.40;;
76346;SDS011;65171;48.378;10.010;2023-01-20T04:08:08;11.00;;;7.97;;
76346;SDS011;65171;48.378;10.010;2023-01-20T04:10:35;11.17;;;7.57;;
76346;SDS011;65171;48.378;10.010;2023-01-20T04:13:04;10.60;;;8.10;;
76346;SDS011;65171;48.378;10.010;2023-01-20T04:15:36;10.27;;;8.20;;
76346;SDS011;65171;48.378;10.010;2023-01-20T04:18:14;11.77;;;8.10;;
76346;SDS011;65171;48.378;10.010;2023-01-20T04:20:42;11.27;;;7.93;;
76346;SDS011;65171;48.378;10.010;2023-01-20T04:23:12;11.23;;;7.70;;
76346;SDS011;65171;48.378;10.010;2023-01-20T04:25:45;9.63;;;7.67;;
76346;SDS011;65171;48.378;10.010;2023-01-20T04:28:10;9.70;;;7.73;;
76346;SDS011;65171;48.378;10.010;2023-01-20T04:30:35;9.93;;;8.20;;
76346;SDS011;65171;48.378;10.010;2023-01-20T04:33:00;9.63;;;8.27;;
76346;SDS011;65171;48.378;10.010;2023-01-20T04:35:25;12.17;;;8.47;;
76346;SDS011;65171;48.378;10.010;2023-01-20T04:37:51;11.20;;;8.50;;
76346;SDS011;65171;48.378;10.010;2023-01-20T04:40:16;9.93;;;8.10;;
76346;SDS011;65171;48.378;10.010;2023-01-20T04:42:41;12.70;;;8.30;;
76346;SDS011;65171;48.378;10.010;2023-01-20T04:45:06;11.17;;;8.97;;
76346;SDS011;65171;48.378;10.010;2023-01-20T04:47:33;11.27;;;8.53;;
76346;SDS011;65171;48.378;10.010;2023-01-20T04:49:58;9.60;;;7.40;;
76346;SDS011;65171;48.378;10.010;2023-01-20T04:52:24;11.40;;;8.60;;
76346;SDS011;65171;48.378;10.010;2023-01-20T04:54:49;10.63;;;8.30;;
76346;SDS011;65171;48.378;10.010;2023-01-20T04:57:14;12.27;;;8.70;;
76346;SDS011;65171;48.378;10.010;2023-01-20T04:59:40;12.77;;;8.40;;
76346;SDS011;65171;48.378;10.010;2023-01-20T05:02:05;11.43;;;8.03;;
76346;SDS011;65171;48.378;10.010;2023-01-20T05:04:31;11.83;;;8.60;;
76346;SDS011;65171;48.378;10.010;2023-01-20T05:06:56;10.23;;;7.87;;
76346;SDS011;65171;48.378;10.010;2023-01-20T05:09:21;10.77;;;8.27;;
76346;SDS011;65171;48.378;10.010;2023-01-20T05:11:46;8.53;;;7.33;;
76346;SDS011;65171;48.378;10.010;2023-01-20T05:14:11;11.77;;;8.17;;
76346;SDS011;65171;48.378;10.010;2023-01-20T05:16:37;10.60;;;8.10;;
76346;SDS011;65171;48.378;10.010;2023-01-20T05:19:02;11.67;;;8.70;;
76346;SDS011;65171;48.378;10.010;2023-01-20T05:21:27;13.03;;;7.97;;
76346;SDS011;65171;48.378;10.010;2023-01-20T05:23:53;10.63;;;8.17;;
76346;SDS011;65171;48.378;10.010;2023-01-20T05:26:19;9.90;;;7.60;;
76346;SDS011;65171;48.378;10.010;2023-01-20T05:28:46;10.37;;;8.20;;
76346;SDS011;65171;48.378;10.010;2023-01-20T05:31:11;12.47;;;9.03;;
76346;SDS011;65171;48.378;10.010;2023-01-20T05:33:37;11.77;;;8.40;;
76346;SDS011;65171;48.378;10.010;2023-01-20T05:36:05;12.37;;;8.13;;
76346;SDS011;65171;48.378;10.010;2023-01-20T05:38:31;9.47;;;7.23;;
76346;SDS011;65171;48.378;10.010;2023-01-20T05:41:00;8.63;;;7.43;;
76346;SDS011;65171;48.378;10.010;2023-01-20T05:43:26;8.67;;;7.27;;
76346;SDS011;65171;48.378;10.010;2023-01-20T05:45:51;10.87;;;7.50;;
76346;SDS011;65171;48.378;10.010;2023-01-20T05:48:16;9.23;;;7.33;;
76346;SDS011;65171;48.378;10.010;2023-01-20T05:50:42;9.73;;;7.37;;
76346;SDS011;65171;48.378;10.010;2023-01-20T05:53:07;10.53;;;6.90;;
76346;SDS011;65171;48.378;10.010;2023-01-20T05:55:32;9.93;;;7.17;;
76346;SDS011;65171;48.378;10.010;2023-01-20T05:57:59;9.83;;;7.13;;
76346;SDS011;65171;48.378;10.010;2023-01-20T06:00:25;7.63;;;6.83;;
76346;SDS011;65171;48.378;10.010;2023-01-20T06:02:50;8.50;;;6.57;;
76346;SDS011;65171;48.378;10.010;2023-01-20T06:05:16;7.67;;;6.43;;
76346;SDS011;65171;48.378;10.010;2023-01-20T06:07:41;9.17;;;6.60;;
76346;SDS011;65171;48.378;10.010;2023-01-20T06:10:06;10.37;;;7.20;;
76346;SDS011;65171;48.378;10.010;2023-01-20T06:12:32;9.60;;;6.87;;
76346;SDS011;65171;48.378;10.010;2023-01-20T06:14:57;9.33;;;7.10;;
76346;SDS011;65171;48.378;10.010;2023-01-20T06:17:22;7.80;;;7.00;;
76346;SDS011;65171;48.378;10.010;2023-01-20T06:19:47;8.63;;;7.30;;
76346;SDS011;65171;48.378;10.010;2023-01-20T06:22:13;9.63;;;7.57;;
76346;SDS011;65171;48.378;10.010;2023-01-20T06:24:38;8.20;;;6.97;;
76346;SDS011;65171;48.378;10.010;2023-01-20T06:27:04;8.37;;;6.67;;
76346;SDS011;65171;48.378;10.010;2023-01-20T06:29:29;11.10;;;7.60;;
76346;SDS011;65171;48.378;10.010;2023-01-20T06:31:54;10.10;;;7.13;;
76346;SDS011;65171;48.378;10.010;2023-01-20T06:34:19;9.80;;;7.40;;
76346;SDS011;65171;48.378;10.010;2023-01-20T06:36:44;9.33;;;6.80;;
76346;SDS011;65171;48.378;10.010;2023-01-20T06:39:10;15.30;;;7.27;;
76346;SDS011;65171;48.378;10.010;2023-01-20T06:41:35;9.67;;;7.47;;
76346;SDS011;65171;48.378;10.010;2023-01-20T06:44:00;13.50;;;8.70;;
76346;SDS011;65171;48.378;10.010;2023-01-20T06:46:25;11.67;;;8.17;;
76346;SDS011;65171;48.378;10.010;2023-01-20T06:48:50;9.83;;;7.80;;
76346;SDS011;65171;48.378;10.010;2023-01-20T06:51:17;9.67;;;8.10;;
76346;SDS011;65171;48.378;10.010;2023-01-20T06:53:44;10.63;;;8.23;;
76346;SDS011;65171;48.378;10.010;2023-01-20T06:56:10;10.20;;;7.73;;
76346;SDS011;65171;48.378;10.010;2023-01-20T06:58:36;10.10;;;8.50;;
76346;SDS011;65171;48.378;10.010;2023-01-20T07:01:06;11.53;;;8.57;;
76346;SDS011;65171;48.378;10.010;2023-01-20T07:03:34;10.67;;;8.90;;
76346;SDS011;65171;48.378;10.010;2023-01-20T07:06:01;11.07;;;8.90;;
76346;SDS011;65171;48.378;10.010;2023-01-20T07:08:28;11.17;;;9.27;;
76346;SDS011;65171;48.378;10.010;2023-01-20T07:10:53;13.00;;;9.30;;
76346;SDS011;65171;48.378;10.010;2023-01-20T07:13:19;11.33;;;9.23;;
76346;SDS011;65171;48.378;10.010;2023-01-20T07:15:44;12.63;;;10.10;;
76346;SDS011;65171;48.378;10.010;2023-01-20T07:18:09;11.80;;;8.93;;
76346;SDS011;65171;48.378;10.010;2023-01-20T07:20:35;14.70;;;10.57;;
76346;SDS011;65171;48.378;10.010;2023-01-20T07:23:00;12.83;;;10.13;;
76346;SDS011;65171;48.378;10.010;2023-01-20T07:25:26;14.00;;;10.27;;
76346;SDS011;65171;48.378;10.010;2023-01-20T07:27:51;13.30;;;10.10;;
76346;SDS011;65171;48.378;10.010;2023-01-20T07:30:16;11.70;;;10.17;;
76346;SDS011;65171;48.378;10.010;2023-01-20T07:32:42;15.20;;;11.30;;
76346;SDS011;65171;48.378;10.010;2023-01-20T07:35:07;14.30;;;11.87;;
76346;SDS011;65171;48.378;10.010;2023-01-20T07:37:32;16.60;;;12.57;;
76346;SDS011;65171;48.378;10.010;2023-01-20T07:39:58;17.37;;;12.53;;
76346;SDS011;65171;48.378;10.010;2023-01-20T07:42:23;19.73;;;14.03;;
76346;SDS011;65171;48.378;10.010;2023-01-20T07:44:48;18.73;;;13.87;;
76346;SDS011;65171;48.378;10.010;2023-01-20T07:47:13;21.07;;;15.10;;
76346;SDS011;65171;48.378;10.010;2023-01-20T07:49:38;22.13;;;15.53;;
76346;SDS011;65171;48.378;10.010;2023-01-20T07:52:04;20.10;;;15.63;;
76346;SDS011;65171;48.378;10.010;2023-01-20T07:54:29;21.57;;;16.03;;
76346;SDS011;65171;48.378;10.010;2023-01-20T07:56:54;23.10;;;16.40;;
76346;SDS011;65171;48.378;10.010;2023-01-20T07:59:19;23.63;;;17.67;;
76346;SDS011;65171;48.378;10.010;2023-01-20T08:01:44;24.30;;;17.90;;
76346;SDS011;65171;48.378;10.010;2023-01-20T08:04:10;22.03;;;16.77;;
76346;SDS011;65171;48.378;10.010;2023-01-20T08:06:35;23.97;;;16.73;;
76346;SDS011;65171;48.378;10.010;2023-01-20T08:09:00;21.50;;;16.47;;
76346;SDS011;65171;48.378;10.010;2023-01-20T08:11:26;19.87;;;14.43;;
76346;SDS011;65171;48.378;10.010;2023-01-20T08:13:51;19.00;;;13.97;;
76346;SDS011;65171;48.378;10.010;2023-01-20T08:16:17;20.67;;;13.87;;
76346;SDS011;65171;48.378;10.010;2023-01-20T08:18:42;18.40;;;12.77;;
76346;SDS011;65171;48.378;10.010;2023-01-20T08:23:47;15.50;;;11.13;;
76346;SDS011;65171;48.378;10.010;2023-01-20T08:26:13;15.77;;;11.97;;
76346;SDS011;65171;48.378;10.010;2023-01-20T08:28:38;18.00;;;12.93;;
76346;SDS011;65171;48.378;10.010;2023-01-20T08:31:05;15.50;;;11.77;;
76346;SDS011;65171;48.378;10.010;2023-01-20T08:33:32;13.87;;;10.90;;
76346;SDS011;65171;48.378;10.010;2023-01-20T08:36:04;13.80;;;10.97;;
76346;SDS011;65171;48.378;10.010;2023-01-20T08:38:30;15.57;;;11.67;;
76346;SDS011;65171;48.378;10.010;2023-01-20T08:40:55;17.97;;;11.73;;
76346;SDS011;65171;48.378;10.010;2023-01-20T08:43:21;15.80;;;11.53;;
76346;SDS011;65171;48.378;10.010;2023-01-20T08:45:46;14.97;;;11.00;;
76346;SDS011;65171;48.378;10.010;2023-01-20T08:48:11;14.33;;;10.70;;
76346;SDS011;65171;48.378;10.010;2023-01-20T08:50:36;14.10;;;10.90;;
76346;SDS011;65171;48.378;10.010;2023-01-20T08:53:01;14.80;;;11.37;;
76346;SDS011;65171;48.378;10.010;2023-01-20T08:55:27;14.80;;;11.60;;
76346;SDS011;65171;48.378;10.010;2023-01-20T08:57:52;15.03;;;12.00;;
76346;SDS011;65171;48.378;10.010;2023-01-20T09:00:17;15.43;;;12.00;;
76346;SDS011;65171;48.378;10.010;2023-01-20T09:02:43;15.73;;;11.97;;
76346;SDS011;65171;48.378;10.010;2023-01-20T09:05:08;14.20;;;11.73;;
76346;SDS011;65171;48.378;10.010;2023-01-20T09:07:34;15.27;;;11.33;;
76346;SDS011;65171;48.378;10.010;2023-01-20T09:09:59;14.57;;;11.50;;
76346;SDS011;65171;48.378;10.010;2023-01-20T09:12:24;15.77;;;11.40;;
76346;SDS011;65171;48.378;10.010;2023-01-20T09:14:49;13.07;;;10.77;;
76346;SDS011;65171;48.378;10.010;2023-01-20T09:17:14;14.00;;;10.50;;
76346;SDS011;65171;48.378;10.010;2023-01-20T09:19:39;14.43;;;10.40;;
76346;SDS011;65171;48.378;10.010;2023-01-20T09:22:05;12.87;;;10.50;;
76346;SDS011;65171;48.378;10.010;2023-01-20T09:24:30;11.37;;;9.60;;
76346;SDS011;65171;48.378;10.010;2023-01-20T09:26:56;12.10;;;8.90;;
76346;SDS011;65171;48.378;10.010;2023-01-20T09:29:21;9.63;;;8.03;;
76346;SDS011;65171;48.378;10.010;2023-01-20T09:31:53;11.57;;;8.60;;
76346;SDS011;65171;48.378;10.010;2023-01-20T09:34:19;9.93;;;7.73;;
76346;SDS011;65171;48.378;10.010;2023-01-20T09:36:44;9.67;;;7.77;;
76346;SDS011;65171;48.378;10.010;2023-01-20T09:39:13;10.27;;;7.97;;
76346;SDS011;65171;48.378;10.010;2023-01-20T09:41:38;11.33;;;8.33;;
76346;SDS011;65171;48.378;10.010;2023-01-20T09:49:22;12.67;;;8.43;;
76346;SDS011;65171;48.378;10.010;2023-01-20T09:52:16;10.07;;;8.17;;
76346;SDS011;65171;48.378;10.010;2023-01-20T09:55:00;11.57;;;9.00;;
76346;SDS011;65171;48.378;10.010;2023-01-20T09:57:30;11.90;;;9.20;;
76346;SDS011;65171;48.378;10.010;2023-01-20T10:00:14;9.70;;;8.37;;
76346;SDS011;65171;48.378;10.010;2023-01-20T10:02:45;10.87;;;9.07;;
76346;SDS011;65171;48.378;10.010;2023-01-20T10:05:24;11.87;;;10.30;;
76346;SDS011;65171;48.378;10.010;2023-01-20T10:07:55;12.40;;;9.30;;
76346;SDS011;65171;48.378;10.010;2023-01-20T10:15:36;12.77;;;9.77;;
76346;SDS011;65171;48.378;10.010;2023-01-20T10:18:18;13.50;;;9.70;;
76346;SDS011;65171;48.378;10.010;2023-01-20T10:20:49;12.37;;;10.50;;
76346;SDS011;65171;48.378;10.010;2023-01-20T10:23:20;11.27;;;9.50;;
76346;SDS011;65171;48.378;10.010;2023-01-20T10:25:52;12.57;;;10.13;;
76346;SDS011;65171;48.378;10.010;2023-01-20T10:28:26;13.50;;;10.27;;
76346;SDS011;65171;48.378;10.010;2023-01-20T10:30:52;12.10;;;9.93;;
76346;SDS011;65171;48.378;10.010;2023-01-20T10:33:18;13.40;;;10.00;;
76346;SDS011;65171;48.378;10.010;2023-01-20T10:35:53;12.10;;;9.80;;
76346;SDS011;65171;48.378;10.010;2023-01-20T10:38:28;11.20;;;9.43;;
76346;SDS011;65171;48.378;10.010;2023-01-20T10:43:50;13.63;;;9.63;;
76346;SDS011;65171;48.378;10.010;2023-01-20T10:57:38;8.90;;;6.67;;
76346;SDS011;65171;48.378;10.010;2023-01-20T11:00:04;8.30;;;7.23;;
76346;SDS011;65171;48.378;10.010;2023-01-20T11:02:31;8.30;;;6.83;;
76346;SDS011;65171;48.378;10.010;2023-01-20T11:05:18;8.73;;;6.87;;
76346;SDS011;65171;48.378;10.010;2023-01-20T11:07:46;10.93;;;7.10;;
76346;SDS011;65171;48.378;10.010;2023-01-20T11:10:13;7.57;;;6.10;;
76346;SDS011;65171;48.378;10.010;2023-01-20T11:12:41;7.80;;;6.20;;
76346;SDS011;65171;48.378;10.010;2023-01-20T11:15:15;7.67;;;6.23;;
76346;SDS011;65171;48.378;10.010;2023-01-20T11:17:46;9.03;;;6.37;;
76346;SDS011;65171;48.378;10.010;2023-01-20T11:20:51;10.03;;;5.80;;
76346;SDS011;65171;48.378;10.010;2023-01-20T11:26:05;8.70;;;5.80;;
76346;SDS011;65171;48.378;10.010;2023-01-20T11:34:25;6.60;;;5.50;;
76346;SDS011;65171;48.378;10.010;2023-01-20T11:39:36;5.97;;;5.30;;
76346;SDS011;65171;48.378;10.010;2023-01-20T11:42:08;8.00;;;5.13;;
76346;SDS011;65171;48.378;10.010;2023-01-20T11:44:41;7.80;;;5.57;;
76346;SDS011;65171;48.378;10.010;2023-01-20T11:52:37;8.07;;;5.23;;
76346;SDS011;65171;48.378;10.010;2023-01-20T11:55:22;6.70;;;5.37;;
76346;SDS011;65171;48.378;10.010;2023-01-20T11:57:54;7.57;;;5.50;;
76346;SDS011;65171;48.378;10.010;2023-01-20T12:02:59;8.93;;;5.83;;
76346;SDS011;65171;48.378;10.010;2023-01-20T12:05:48;5.70;;;4.77;;
76346;SDS011;65171;48.378;10.010;2023-01-20T12:08:20;7.43;;;5.13;;
76346;SDS011;65171;48.378;10.010;2023-01-20T12:10:50;8.10;;;5.20;;
76346;SDS011;65171;48.378;10.010;2023-01-20T12:13:18;10.20;;;5.80;;
76346;SDS011;65171;48.378;10.010;2023-01-20T12:15:47;6.60;;;4.60;;
76346;SDS011;65171;48.378;10.010;2023-01-20T12:18:18;6.80;;;4.90;;
76346;SDS011;65171;48.378;10.010;2023-01-20T12:21:00;8.77;;;4.67;;
76346;SDS011;65171;48.378;10.010;2023-01-20T12:23:32;5.57;;;4.93;;
76346;SDS011;65171;48.378;10.010;2023-01-20T12:26:05;8.10;;;5.40;;
76346;SDS011;65171;48.378;10.010;2023-01-20T12:28:37;7.60;;;4.87;;
76346;SDS011;65171;48.378;10.010;2023-01-20T12:31:10;11.33;;;5.80;;
76346;SDS011;65171;48.378;10.010;2023-01-20T12:33:39;7.30;;;5.63;;
76346;SDS011;65171;48.378;10.010;2023-01-20T12:47:35;7.67;;;5.40;;
76346;SDS011;65171;48.378;10.010;2023-01-20T12:56:48;10.23;;;4.90;;
76346;SDS011;65171;48.378;10.010;2023-01-20T12:59:29;9.60;;;5.57;;
76346;SDS011;65171;48.378;10.010;2023-01-20T13:12:54;6.40;;;5.10;;
76346;SDS011;65171;48.378;10.010;2023-01-20T13:15:28;6.10;;;4.50;;
76346;SDS011;65171;48.378;10.010;2023-01-20T13:20:42;8.03;;;5.50;;
76346;SDS011;65171;48.378;10.010;2023-01-20T13:23:09;8.80;;;5.50;;
76346;SDS011;65171;48.378;10.010;2023-01-20T13:25:38;8.03;;;5.90;;
76346;SDS011;65171;48.378;10.010;2023-01-20T13:28:04;8.33;;;5.63;;
76346;SDS011;65171;48.378;10.010;2023-01-20T13:33:04;6.10;;;5.10;;
76346;SDS011;65171;48.378;10.010;2023-01-20T13:35:39;6.90;;;5.00;;
76346;SDS011;65171;48.378;10.010;2023-01-20T13:38:27;6.77;;;5.30;;
76346;SDS011;65171;48.378;10.010;2023-01-20T13:40:54;6.83;;;5.70;;
76346;SDS011;65171;48.378;10.010;2023-01-20T13:48:37;6.20;;;5.13;;
76346;SDS011;65171;48.378;10.010;2023-01-20T13:53:52;6.10;;;5.15;;
76346;SDS011;65171;48.378;10.010;2023-01-20T13:56:27;6.80;;;5.60;;
76346;SDS011;65171;48.378;10.010;2023-01-20T13:58:56;7.00;;;5.10;;
76346;SDS011;65171;48.378;10.010;2023-01-20T14:01:21;6.20;;;5.00;;
76346;SDS011;65171;48.378;10.010;2023-01-20T14:06:31;6.60;;;4.47;;
76346;SDS011;65171;48.378;10.010;2023-01-20T14:08:57;6.07;;;4.30;;
76346;SDS011;65171;48.378;10.010;2023-01-20T14:11:24;4.97;;;4.40;;
76346;SDS011;65171;48.378;10.010;2023-01-20T14:13:54;7.17;;;4.63;;
76346;SDS011;65171;48.378;10.010;2023-01-20T14:16:21;5.37;;;4.20;;
76346;SDS011;65171;48.378;10.010;2023-01-20T14:18:53;5.37;;;3.90;;
76346;SDS011;65171;48.378;10.010;2023-01-20T14:21:22;4.93;;;4.00;;
76346;SDS011;65171;48.378;10.010;2023-01-20T14:23:49;6.47;;;4.40;;
76346;SDS011;65171;48.378;10.010;2023-01-20T14:26:22;6.33;;;4.13;;
76346;SDS011;65171;48.378;10.010;2023-01-20T14:28:55;5.67;;;3.83;;
76346;SDS011;65171;48.378;10.010;2023-01-20T14:31:28;5.60;;;3.60;;
76346;SDS011;65171;48.378;10.010;2023-01-20T14:36:37;4.57;;;3.90;;
76346;SDS011;65171;48.378;10.010;2023-01-20T14:39:02;6.27;;;4.47;;
76346;SDS011;65171;48.378;10.010;2023-01-20T14:41:29;8.03;;;4.13;;
76346;SDS011;65171;48.378;10.010;2023-01-20T14:44:14;7.93;;;4.43;;
76346;SDS011;65171;48.378;10.010;2023-01-20T14:46:41;5.87;;;3.70;;
76346;SDS011;65171;48.378;10.010;2023-01-20T14:49:08;7.23;;;4.30;;
76346;SDS011;65171;48.378;10.010;2023-01-20T14:51:40;5.70;;;4.03;;
76346;SDS011;65171;48.378;10.010;2023-01-20T14:56:52;6.80;;;4.10;;
76346;SDS011;65171;48.378;10.010;2023-01-20T14:59:18;7.13;;;4.13;;
76346;SDS011;65171;48.378;10.010;2023-01-20T15:01:48;8.20;;;4.17;;
76346;SDS011;65171;48.378;10.010;2023-01-20T15:04:15;7.60;;;4.93;;
76346;SDS011;65171;48.378;10.010;2023-01-20T15:06:40;7.00;;;4.70;;
76346;SDS011;65171;48.378;10.010;2023-01-20T15:09:21;5.83;;;4.50;;
76346;SDS011;65171;48.378;10.010;2023-01-20T15:17:30;6.67;;;4.20;;
76346;SDS011;65171;48.378;10.010;2023-01-20T15:19:55;7.80;;;4.73;;
76346;SDS011;65171;48.378;10.010;2023-01-20T15:22:21;6.23;;;4.90;;
76346;SDS011;65171;48.378;10.010;2023-01-20T15:24:47;6.43;;;4.60;;
76346;SDS011;65171;48.378;10.010;2023-01-20T15:27:26;6.20;;;4.50;;
76346;SDS011;65171;48.378;10.010;2023-01-20T15:30:14;7.07;;;5.80;;
76346;SDS011;65171;48.378;10.010;2023-01-20T15:32:41;8.03;;;5.00;;
76346;SDS011;65171;48.378;10.010;2023-01-20T15:35:09;7.53;;;4.83;;
76346;SDS011;65171;48.378;10.010;2023-01-20T15:37:36;8.43;;;5.00;;
76346;SDS011;65171;48.378;10.010;2023-01-20T15:40:01;7.33;;;5.10;;
76346;SDS011;65171;48.378;10.010;2023-01-20T15:42:26;11.90;;;7.87;;
76346;SDS011;65171;48.378;10.010;2023-01-20T15:44:51;7.37;;;5.37;;
76346;SDS011;65171;48.378;10.010;2023-01-20T15:47:21;10.53;;;6.10;;
76346;SDS011;65171;48.378;10.010;2023-01-20T15:49:50;7.63;;;5.43;;
76346;SDS011;65171;48.378;10.010;2023-01-20T15:52:15;8.50;;;5.87;;
76346;SDS011;65171;48.378;10.010;2023-01-20T15:54:41;5.70;;;4.93;;
76346;SDS011;65171;48.378;10.010;2023-01-20T15:57:11;10.17;;;5.37;;
76346;SDS011;65171;48.378;10.010;2023-01-20T15:59:37;6.73;;;5.23;;
76346;SDS011;65171;48.378;10.010;2023-01-20T16:02:02;6.20;;;5.33;;
76346;SDS011;65171;48.378;10.010;2023-01-20T16:04:28;7.87;;;5.43;;
76346;SDS011;65171;48.378;10.010;2023-01-20T16:06:53;6.80;;;5.63;;
76346;SDS011;65171;48.378;10.010;2023-01-20T16:09:20;6.93;;;5.47;;
76346;SDS011;65171;48.378;10.010;2023-01-20T16:11:50;7.63;;;5.33;;
76346;SDS011;65171;48.378;10.010;2023-01-20T16:14:16;8.27;;;6.30;;
76346;SDS011;65171;48.378;10.010;2023-01-20T16:16:41;10.73;;;6.37;;
76346;SDS011;65171;48.378;10.010;2023-01-20T16:19:08;10.70;;;7.67;;
76346;SDS011;65171;48.378;10.010;2023-01-20T16:21:36;9.53;;;7.20;;
76346;SDS011;65171;48.378;10.010;2023-01-20T16:24:01;10.07;;;6.93;;
76346;SDS011;65171;48.378;10.010;2023-01-20T16:26:27;10.37;;;7.30;;
76346;SDS011;65171;48.378;10.010;2023-01-20T16:28:55;8.90;;;6.93;;
76346;SDS011;65171;48.378;10.010;2023-01-20T16:31:21;10.97;;;8.50;;
76346;SDS011;65171;48.378;10.010;2023-01-20T16:33:50;12.17;;;8.77;;
76346;SDS011;65171;48.378;10.010;2023-01-20T16:36:17;13.90;;;9.93;;
76346;SDS011;65171;48.378;10.010;2023-01-20T16:38:43;13.00;;;9.07;;
76346;SDS011;65171;48.378;10.010;2023-01-20T16:43:38;11.97;;;8.80;;
76346;SDS011;65171;48.378;10.010;2023-01-20T16:46:03;9.57;;;7.77;;
76346;SDS011;65171;48.378;10.010;2023-01-20T16:48:29;8.80;;;6.90;;
76346;SDS011;65171;48.378;10.010;2023-01-20T16:50:54;9.27;;;6.60;;